Latest Coastal Weather Observations for Point Fawcett

IDD60701

Issued at 10:11 pm CST Monday 2 May 2016 (issued every 10 minutes, with the page automatically refreshed every 10 minutes)

About coastal observations | Map of coastal stations | Coastal observations for NT | Marine services | Other Formats
Station Details ID: 200731 Name: POINT FAWCETT Lat: -11.76 Lon: 130.03 Height: 6.5 m
Data from the previous 72 hours. | See also: Recent months at Point Fawcett
Date/Time
CST
Temp

°C
Wind Pressure Rain
since 9am
mm
Weather Cloud Vis
km
Sea
Height
m
Swell
Dir
 
Speed
knots
Gust
knots
hPa Trend Height
m
Period
s
Dir
02/10:00pm 25.5 E 4 6 1012.4 - 1.0 - - - - - - -
02/09:30pm 25.7 ESE 4 4 1012.7 - 1.0 - - - - - - -
02/09:00pm 25.8 SE 4 5 1012.5 - 1.0 - - - - - - -
02/08:30pm 25.9 ESE 4 4 1012.1 - 1.0 - - - - - - -
02/08:00pm 26.2 E 4 5 1011.4 - 1.0 - - - - - - -
02/07:30pm 26.4 ESE 3 4 1011.1 - 1.0 - - - - - - -
02/07:00pm 26.5 E 4 6 1011.1 - 0.6 - - - - - - -
02/06:30pm 26.5 E 4 5 1010.4 - 0.4 - - - - - - -
02/06:00pm 26.7 ESE 3 5 1010.2 - 0.4 - - - - - - -
02/05:30pm 26.6 ESE 3 4 1009.6 - 0.4 - - - - - - -
02/05:00pm 26.5 SSE 3 4 1009.3 - 0.4 - - - - - - -
02/04:30pm 26.7 S 1 3 1009.1 - 0.4 - - - - - - -
02/04:00pm 26.7 SE 3 5 1009.1 - 0.4 - - - - - - -
02/03:30pm 27.4 E 6 10 1009.1 - 0.4 - - - - - - -
02/03:00pm 29.5 NNE 12 20 1008.4 - 0.2 - - - - - - -
02/02:30pm 30.6 NNE 14 21 1009.0 - 0.0 - - - - - - -
02/02:18pm 30.4 NNE 15 24 1009.5 - 0.0 - - - - - - -
02/02:00pm 34.5 NE 8 14 1009.2 - 0.0 - - - - - - -
02/01:30pm 33.8 NE 8 13 1009.5 - 0.0 - - - - - - -
02/01:00pm 34.0 NE 9 14 1009.8 - 0.0 - - - - - - -
02/12:30pm 33.9 NE 8 13 1010.2 - 0.0 - - - - - - -
02/12:00pm 33.5 ENE 6 10 1010.7 - 0.0 - - - - - - -
02/11:30am 33.2 ENE 8 13 1011.2 - 0.0 - - - - - - -
02/11:00am 32.2 E 7 14 1011.5 - 0.0 - - - - - - -
02/10:30am 33.0 ENE 7 12 1011.7 - 0.0 - - - - - - -
02/10:00am 31.6 ENE 5 9 1011.9 - 0.0 - - - - - - -
02/09:30am 30.5 ENE 7 10 1011.8 - 0.0 - - - - - - -
02/09:00am 29.0 E 5 8 1011.5 - 0.0 - - - - - - -
02/08:30am 27.7 E 5 7 1011.2 - 0.0 - - - - - - -
02/08:00am 26.8 E 5 8 1010.8 - 0.0 - - - - - - -
02/07:30am 25.8 ESE 3 5 1010.1 - 0.0 - - - - - - -
02/07:00am 25.8 E 4 6 1010.1 - 0.0 - - - - - - -
02/06:30am 25.6 E 4 5 1009.9 - 0.0 - - - - - - -
02/06:00am 25.3 SE 3 5 1009.6 - 0.0 - - - - - - -
02/05:30am 25.2 ESE 4 5 1009.4 - 0.0 - - - - - - -
02/05:00am 25.1 ESE 4 5 1009.3 - 0.0 - - - - - - -
02/04:30am 25.3 E 4 4 1009.1 - 0.0 - - - - - - -
02/04:00am 25.5 SE 3 3 1009.1 - 0.0 - - - - - - -
02/03:30am 25.8 E 4 5 1009.4 - 0.0 - - - - - - -
02/03:00am 26.0 E 4 5 1009.6 - 0.0 - - - - - - -
02/02:30am 26.2 E 5 6 1009.7 - 0.0 - - - - - - -
02/02:00am 26.5 E 4 5 1009.9 - 0.0 - - - - - - -
02/01:30am 26.6 ESE 3 4 1009.8 - 0.0 - - - - - - -
02/01:00am 26.9 ESE 3 5 1010.1 - 0.0 - - - - - - -
02/12:30am 27.0 E 5 7 1010.8 - 0.0 - - - - - - -
02/12:00am 26.8 E 5 7 1010.6 - 0.0 - - - - - - -
 
Date/Time
CST
Temp

°C
Wind Pressure Rain
since 9am
mm
Weather Cloud Vis
km
Sea
Height
m
Swell
Dir
 
Speed
knots
Gust
knots
hPa Trend Height
m
Period
s
Dir
01/11:30pm 26.3 E 5 6 1010.8 - 0.0 - - - - - - -
01/11:00pm 26.0 E 4 5 1011.0 - 0.0 - - - - - - -
01/10:30pm 26.0 ENE 4 4 1010.9 - 0.0 - - - - - - -
01/10:00pm 26.0 CALM 0 0 1011.0 - 0.0 - - - - - - -
01/09:30pm 26.2 CALM 0 0 1011.2 - 0.0 - - - - - - -
01/09:00pm 26.5 ESE 3 3 1011.0 - 0.0 - - - - - - -
01/08:30pm 27.1 ENE 3 4 1011.0 - 0.0 - - - - - - -
01/08:00pm 27.9 NE 4 5 1010.5 - 0.0 - - - - - - -
01/07:30pm 28.0 N 5 7 1010.1 - 0.0 - - - - - - -
01/07:00pm 28.0 NNE 3 4 1009.8 - 0.0 - - - - - - -
01/06:30pm 29.0 N 4 6 1010.0 - 0.0 - - - - - - -
01/06:00pm 29.7 NNE 1 4 1009.5 - 0.0 - - - - - - -
01/05:30pm 29.7 CALM 0 3 1009.2 - 0.0 - - - - - - -
01/05:00pm 29.5 E 4 6 1008.7 - 0.0 - - - - - - -
01/04:30pm 28.8 E 5 7 1008.3 - 0.0 - - - - - - -
01/04:00pm 29.2 NE 10 15 1008.5 - 0.0 - - - - - - -
01/03:30pm 32.3 SSE 5 9 1008.6 - 0.0 - - - - - - -
01/03:00pm 32.8 SSE 4 7 1008.4 - 0.0 - - - - - - -
01/02:30pm 32.1 S 6 9 1008.9 - 0.0 - - - - - - -
01/02:00pm 31.7 SSE 5 8 1009.5 - 0.0 - - - - - - -
01/01:30pm 32.9 SSE 4 5 1009.7 - 0.0 - - - - - - -
01/01:00pm 32.9 SSE 4 10 1009.9 - 0.0 - - - - - - -
01/12:30pm 32.2 ESE 7 11 1010.7 - 0.0 - - - - - - -
01/12:00pm 33.5 ESE 7 12 1010.8 - 0.0 - - - - - - -
01/11:30am 33.0 ESE 5 8 1011.2 - 0.0 - - - - - - -
01/11:00am 32.4 SSE 5 8 1011.5 - 0.0 - - - - - - -
01/10:30am 31.8 SE 6 11 1011.6 - 0.0 - - - - - - -
01/10:00am 31.5 SSE 7 11 1011.4 - 0.0 - - - - - - -
01/09:30am 30.7 E 5 8 1011.7 - 0.0 - - - - - - -
01/09:00am 29.5 E 4 5 1011.8 - 2.6 - - - - - - -
01/08:30am 28.1 E 4 6 1011.8 - 2.6 - - - - - - -
01/08:00am 26.2 E 3 4 1011.4 - 2.6 - - - - - - -
01/07:30am 25.2 ESE 4 5 1011.2 - 2.6 - - - - - - -
01/07:00am 24.8 E 5 7 1010.7 - 2.6 - - - - - - -
01/06:30am 24.8 E 4 5 1010.4 - 2.4 - - - - - - -
01/06:00am 25.0 SE 4 6 1010.1 - 2.4 - - - - - - -
01/05:30am 25.4 E 7 10 1010.2 - 2.4 - - - - - - -
01/05:00am 26.0 ESE 10 15 1010.6 - 2.4 - - - - - - -
01/04:30am 24.7 SSE 4 5 1010.2 - 2.4 - - - - - - -
01/04:00am 24.9 SE 3 4 1009.9 - 2.4 - - - - - - -
01/03:30am 24.9 SSE 3 4 1009.6 - 2.4 - - - - - - -
01/03:00am 25.1 S 3 4 1009.7 - 2.4 - - - - - - -
01/02:30am 25.0 S 4 5 1009.9 - 2.4 - - - - - - -
01/02:00am 24.8 SSE 4 5 1010.2 - 2.4 - - - - - - -
01/01:30am 24.6 SSE 4 4 1010.0 - 2.4 - - - - - - -
01/01:00am 24.6 SSE 4 4 1010.1 - 2.4 - - - - - - -
01/12:30am 24.5 SSE 4 5 1010.4 - 2.4 - - - - - - -
01/12:00am 24.7 SSE 4 4 1010.5 - 2.4 - - - - - - -
 
Date/Time
CST
Temp

°C
Wind Pressure Rain
since 9am
mm
Weather Cloud Vis
km
Sea
Height
m
Swell
Dir
 
Speed
knots
Gust
knots
hPa Trend Height
m
Period
s
Dir
30/11:30pm 24.8 SSE 4 4 1010.6 - 2.4 - - - - - - -
30/11:00pm 24.9 S 3 4 1010.6 - 2.4 - - - - - - -
30/10:30pm 25.0 S 3 4 1010.8 - 2.4 - - - - - - -
30/10:00pm 25.1 SSE 3 4 1011.0 - 2.4 - - - - - - -
30/09:30pm 25.2 S 3 4 1010.7 - 2.4 - - - - - - -
30/09:00pm 25.4 SSE 3 4 1010.6 - 2.4 - - - - - - -
30/08:30pm 25.9 S 3 5 1010.4 - 2.4 - - - - - - -
30/08:00pm 26.3 S 3 5 1010.1 - 2.4 - - - - - - -
30/07:30pm 27.2 SSW 4 5 1010.0 - 2.4 - - - - - - -
30/07:00pm 28.0 SSW 4 6 1009.7 - 2.4 - - - - - - -
30/06:30pm 29.2 SSW 5 8 1009.4 - 2.4 - - - - - - -
30/06:00pm 30.2 SSW 7 10 1008.9 - 2.4 - - - - - - -
30/05:30pm 31.4 SSW 6 9 1008.7 - 2.4 - - - - - - -
30/05:00pm 31.4 SSW 6 9 1008.5 - 2.4 - - - - - - -
30/04:30pm 31.8 SSW 6 9 1008.3 - 2.4 - - - - - - -
30/04:00pm 32.4 SSW 6 9 1008.4 - 2.4 - - - - - - -
30/03:30pm 31.5 SW 8 12 1008.5 - 2.4 - - - - - - -
30/03:00pm 31.4 WSW 6 8 1008.7 - 2.4 - - - - - - -
30/02:30pm 30.5 W 5 6 1009.4 - 2.4 - - - - - - -
30/02:00pm 28.1 N 2 4 1009.9 - 2.4 - - - - - - -
30/01:30pm 27.1 NW 9 15 1010.4 - 2.4 - - - - - - -
30/01:00pm 29.6 E 4 6 1010.9 - 0.0 - - - - - - -
30/12:30pm 29.8 S 5 8 1011.2 - 0.0 - - - - - - -
30/12:00pm 30.1 W 4 7 1011.7 - 0.0 - - - - - - -
30/11:30am 30.2 SW 4 7 1012.2 - 0.0 - - - - - - -
30/11:00am 30.6 SW 4 5 1012.7 - 0.0 - - - - - - -
30/10:30am 30.1 W 4 6 1012.9 - 0.0 - - - - - - -
30/10:00am 30.8 NW 3 5 1012.9 - 0.0 - - - - - - -
30/09:30am 30.7 SW 2 5 1012.7 - 0.0 - - - - - - -
30/09:00am 29.6 CALM 0 0 1012.4 - 0.0 - - - - - - -
30/08:30am 28.2 SSW 3 4 1012.4 - 0.0 - - - - - - -
30/08:00am 25.8 SSW 3 4 1012.0 - 0.0 - - - - - - -
30/07:30am 24.2 SSW 4 4 1011.8 - 0.0 - - - - - - -
30/07:00am 23.9 SSW 4 5 1011.5 - 0.0 - - - - - - -
30/06:30am 24.0 SSW 4 5 1011.2 - 0.0 - - - - - - -
30/06:00am 24.2 SSW 2 4 1010.8 - 0.0 - - - - - - -
30/05:30am 24.4 CALM 0 0 1010.7 - 0.0 - - - - - - -
30/05:00am 24.6 CALM 0 0 1010.4 - 0.0 - - - - - - -
30/04:30am 24.4 SSW 3 4 1010.3 - 0.0 - - - - - - -
30/04:00am 24.2 CALM 0 3 1010.1 - 0.0 - - - - - - -
30/03:30am 24.3 SW 2 4 1010.1 - 0.0 - - - - - - -
30/03:00am 24.1 SSW 3 4 1010.2 - 0.0 - - - - - - -
30/02:30am 24.0 SE 1 4 1010.4 - 0.0 - - - - - - -
30/02:00am 24.0 CALM 0 0 1010.5 - 0.0 - - - - - - -
30/01:30am 24.0 CALM 0 0 1010.6 - 0.0 - - - - - - -
30/01:00am 24.1 CALM 0 0 1010.9 - 0.0 - - - - - - -
30/12:30am 24.2 E 2 3 1011.1 - 0.0 - - - - - - -
30/12:00am 24.4 ESE 3 4 1011.4 - 0.0 - - - - - - -
 
Date/Time
CST
Temp

°C
Wind Pressure Rain
since 9am
mm
Weather Cloud Vis
km
Sea
Height
m
Swell
Dir
 
Speed
knots
Gust
knots
hPa Trend Height
m
Period
s
Dir
29/11:30pm 24.6 ESE 3 3 1011.6 - 0.0 - - - - - - -
29/11:00pm 24.8 ESE 3 3 1011.9 - 0.0 - - - - - - -
29/10:30pm 25.0 ESE 3 4 1012.0 - 0.0 - - - - - - -

Other Formats:

Comma delimited format used in spreadsheet applications
http://www.bom.gov.au/fwo/IDD60701/IDD60701.94122.axf

JavaScript Object Notation format (JSON) in row-major order
http://www.bom.gov.au/fwo/IDD60701/IDD60701.94122.json